Shields, North Dakota
Current Conditions -  °F | °C
As of 3:15 PM on Monday 20 Oct 2014 (Local Time) from KY19 Reporting Station
Clear Clear  
Wind Chill: 70°   Ceiling: Unl
Heat Index: 70°   Visibility: 10mi
Dew Point: 36°   Wind: 16mph
Humidity: 28%   Direction: 150°SSE
Pressure: 29.97"   Gusts: 21mph
Location:  46.23°N, 101.13°W
Report Text: KY19 202115Z AUTO 15014G18KT 10SM CLR 21/02 A2997 RMK AO2
Loading
Personal Weather Stations






























Interactive Weather Map
Tropical Storm Tracking
New forecast layout! Learn more

10-Day Weather Forecast

Advertisements
Track Severe Weather on mobile